Time;durP1;ratioP1;P1;durP2;ratioP2;P2;SDS_P1;SDS_P2;PMS_P1;PMS_P2;Temp;Humidity;BMP_temperature;BMP_pressure;BME280_temperature;BME280_humidity;BME280_pressure;Samples;Min_cycle;Max_cycle;Signal;HPM_P1;HPM_P2
2023/04/12 00:01:22;;;;;;;3.23;1.90;;;;;;;;;;5093547;28;20204;-76
2023/04/12 00:03:49;;;;;;;6.30;1.90;;;;;;;;;;5093443;28;20235;-76
2023/04/12 00:06:16;;;;;;;5.57;1.70;;;;;;;;;;5097697;28;20203;-76
2023/04/12 00:08:45;;;;;;;4.87;1.70;;;;;;;;;;5097382;28;20204;-76
2023/04/12 00:11:12;;;;;;;3.83;1.80;;;;;;;;;;5098422;28;20203;-76
2023/04/12 00:13:38;;;;;;;4.53;1.77;;;;;;;;;;5097587;28;20227;-76
2023/04/12 00:16:05;;;;;;;8.00;1.73;;;;;;;;;;5098269;28;20222;-76
2023/04/12 00:18:31;;;;;;;5.03;2.20;;;;;;;;;;5096949;28;20223;-76
2023/04/12 00:20:58;;;;;;;4.03;1.70;;;;;;;;;;5097353;28;20226;-76
2023/04/12 00:23:24;;;;;;;3.53;1.57;;;;;;;;;;5097270;28;20223;-76
2023/04/12 00:25:50;;;;;;;4.97;1.90;;;;;;;;;;5097355;28;20234;-76
2023/04/12 00:28:17;;;;;;;6.33;1.80;;;;;;;;;;5097262;28;20202;-76
2023/04/12 00:30:44;;;;;;;3.23;1.60;;;;;;;;;;5097170;28;20208;-76
2023/04/12 00:33:10;;;;;;;5.77;1.67;;;;;;;;;;5096757;28;20646;-76
2023/04/12 00:35:37;;;;;;;3.97;1.60;;;;;;;;;;5097111;28;20204;-76
2023/04/12 00:38:09;;;;;;;4.27;1.57;;;;;;;;;;5096633;28;20728;-76
2023/04/12 00:40:35;;;;;;;4.53;1.60;;;;;;;;;;5096934;28;20283;-76
2023/04/12 00:43:01;;;;;;;4.97;1.60;;;;;;;;;;5096899;28;20558;-76
2023/04/12 00:45:28;;;;;;;6.37;1.83;;;;;;;;;;5096839;28;20215;-76
2023/04/12 00:47:55;;;;;;;4.07;2.00;;;;;;;;;;5096884;28;20215;-76
2023/04/12 00:50:22;;;;;;;4.47;1.90;;;;;;;;;;5095716;28;20204;-76
2023/04/12 00:52:48;;;;;;;5.33;2.10;;;;;;;;;;5096414;28;20220;-75
2023/04/12 00:55:14;;;;;;;3.77;1.87;;;;;;;;;;5096723;28;20227;-75
2023/04/12 00:57:41;;;;;;;3.67;1.60;;;;;;;;;;5096619;28;20223;-75
2023/04/12 01:00:12;;;;;;;3.87;1.47;;;;;;;;;;5096689;28;20207;-75
2023/04/12 01:02:41;;;;;;;5.83;2.07;;;;;;;;;;5096586;28;20224;-75
2023/04/12 01:05:13;;;;;;;5.47;1.93;;;;;;;;;;5095395;28;20208;-75
2023/04/12 01:07:50;;;;;;;5.03;1.90;;;;;;;;;;5096553;28;20188;-76
2023/04/12 01:10:30;;;;;;;2.57;1.80;;;;;;;;;;5095079;28;20673;-75
2023/04/12 01:13:02;;;;;;;4.70;2.10;;;;;;;;;;5094932;28;20722;-75
2023/04/12 01:15:30;;;;;;;2.80;1.57;;;;;;;;;;5094215;28;20646;-76
2023/04/12 01:18:01;;;;;;;5.43;2.17;;;;;;;;;;5094399;28;20284;-76
2023/04/12 01:20:30;;;;;;;4.67;2.00;;;;;;;;;;5096314;28;20269;-76
2023/04/12 01:23:06;;;;;;;5.03;2.20;;;;;;;;;;5096153;28;20228;-76
2023/04/12 01:25:33;;;;;;;4.47;1.80;;;;;;;;;;5096266;28;20309;-75
2023/04/12 01:28:06;;;;;;;6.30;2.40;;;;;;;;;;5096080;28;20569;-76
2023/04/12 01:30:33;;;;;;;5.27;1.97;;;;;;;;;;5096085;28;20192;-76
2023/04/12 01:33:00;;;;;;;5.53;1.80;;;;;;;;;;5096012;28;20220;-75
2023/04/12 01:35:28;;;;;;;4.20;2.00;;;;;;;;;;5095706;28;20204;-75
2023/04/12 01:37:56;;;;;;;4.63;1.97;;;;;;;;;;5095912;28;20227;-75
2023/04/12 01:40:22;;;;;;;4.93;2.27;;;;;;;;;;5095937;28;20199;-74
2023/04/12 01:42:48;;;;;;;4.83;1.83;;;;;;;;;;5095819;28;20224;-72
2023/04/12 01:45:15;;;;;;;4.70;2.00;;;;;;;;;;5095761;28;20207;-72
2023/04/12 01:47:41;;;;;;;7.43;1.90;;;;;;;;;;5095708;28;20200;-72
2023/04/12 01:50:25;;;;;;;5.37;2.10;;;;;;;;;;5095741;28;20204;-73
2023/04/12 01:53:03;;;;;;;2.63;1.60;;;;;;;;;;5095547;28;20242;-73
2023/04/12 01:55:30;;;;;;;4.97;1.73;;;;;;;;;;5095687;28;20628;-73
2023/04/12 01:57:57;;;;;;;5.57;2.30;;;;;;;;;;5095509;28;20231;-73
2023/04/12 02:00:23;;;;;;;3.77;2.03;;;;;;;;;;5095580;28;20204;-72
2023/04/12 02:02:50;;;;;;;3.67;1.90;;;;;;;;;;5095377;28;20332;-72
2023/04/12 02:05:16;;;;;;;2.43;1.73;;;;;;;;;;5095480;28;20214;-72
2023/04/12 02:07:43;;;;;;;6.10;2.03;;;;;;;;;;5095068;28;20560;-72
2023/04/12 02:10:13;;;;;;;5.00;1.80;;;;;;;;;;5095273;28;20204;-72
2023/04/12 02:12:39;;;;;;;4.47;1.60;;;;;;;;;;5095222;28;20231;-72
2023/04/12 02:15:06;;;;;;;4.87;2.10;;;;;;;;;;5095412;28;20214;-72
2023/04/12 02:17:35;;;;;;;4.43;2.00;;;;;;;;;;5094841;28;20761;-72
2023/04/12 02:20:01;;;;;;;7.77;2.20;;;;;;;;;;5095080;28;20272;-72
2023/04/12 02:22:27;;;;;;;4.73;2.27;;;;;;;;;;5094967;28;20224;-72
2023/04/12 02:24:53;;;;;;;3.77;2.07;;;;;;;;;;5094994;28;20212;-71
2023/04/12 02:27:20;;;;;;;4.83;2.00;;;;;;;;;;5094322;28;20200;-72
2023/04/12 02:29:46;;;;;;;7.73;2.07;;;;;;;;;;5094596;28;20666;-71
2023/04/12 02:32:12;;;;;;;4.90;2.10;;;;;;;;;;5094439;28;20687;-71
2023/04/12 02:34:38;;;;;;;5.43;2.13;;;;;;;;;;5094839;28;20597;-71
2023/04/12 02:37:06;;;;;;;4.60;2.10;;;;;;;;;;5094672;28;20285;-72
2023/04/12 02:39:33;;;;;;;4.10;1.70;;;;;;;;;;5094394;28;20551;-71
2023/04/12 02:42:00;;;;;;;6.43;2.10;;;;;;;;;;5094263;28;20208;-71
2023/04/12 02:44:28;;;;;;;5.30;2.13;;;;;;;;;;5094245;28;20206;-71
2023/04/12 02:46:55;;;;;;;3.90;1.80;;;;;;;;;;5094434;28;20215;-71
2023/04/12 02:49:21;;;;;;;4.20;2.10;;;;;;;;;;5094382;28;20207;-72
2023/04/12 02:51:47;;;;;;;3.50;2.03;;;;;;;;;;5094123;28;20663;-72
2023/04/12 02:54:13;;;;;;;5.97;2.30;;;;;;;;;;5094157;28;20308;-72
2023/04/12 02:56:40;;;;;;;2.97;1.83;;;;;;;;;;5094281;28;20299;-72
2023/04/12 02:59:06;;;;;;;4.27;1.87;;;;;;;;;;5093798;28;20698;-72
2023/04/12 03:01:32;;;;;;;4.20;2.13;;;;;;;;;;5094627;28;20207;-72
2023/04/12 03:04:00;;;;;;;5.33;2.30;;;;;;;;;;5094003;28;20315;-72
2023/04/12 03:06:28;;;;;;;4.73;2.23;;;;;;;;;;5094625;28;20253;-72
2023/04/12 03:08:56;;;;;;;5.30;2.40;;;;;;;;;;5094624;28;20203;-73
2023/04/12 03:11:22;;;;;;;3.87;1.70;;;;;;;;;;5094069;28;20326;-72
2023/04/12 03:13:49;;;;;;;5.23;2.33;;;;;;;;;;5093989;28;20223;-73
2023/04/12 03:16:22;;;;;;;4.20;2.10;;;;;;;;;;5093930;28;20262;-73
2023/04/12 03:18:50;;;;;;;5.13;2.67;;;;;;;;;;5094274;28;20219;-72
2023/04/12 03:21:16;;;;;;;6.83;2.70;;;;;;;;;;5093925;28;20284;-72
2023/04/12 03:23:43;;;;;;;3.37;2.60;;;;;;;;;;5093428;28;20230;-73
2023/04/12 03:26:09;;;;;;;5.10;2.40;;;;;;;;;;5093803;28;20231;-73
2023/04/12 03:28:35;;;;;;;5.30;2.60;;;;;;;;;;5094124;28;20207;-73
2023/04/12 03:31:01;;;;;;;8.47;2.87;;;;;;;;;;5093313;28;20226;-72
2023/04/12 03:33:28;;;;;;;5.80;2.80;;;;;;;;;;5093207;28;20593;-73
2023/04/12 03:35:54;;;;;;;4.63;2.97;;;;;;;;;;5093060;28;20215;-72
2023/04/12 03:38:20;;;;;;;5.40;3.47;;;;;;;;;;5093862;28;20571;-73
2023/04/12 03:40:46;;;;;;;6.87;3.60;;;;;;;;;;5093179;28;20208;-74
2023/04/12 03:43:13;;;;;;;4.73;3.17;;;;;;;;;;5093432;28;20586;-74
2023/04/12 03:45:39;;;;;;;7.00;3.20;;;;;;;;;;5093625;28;20552;-75
2023/04/12 03:48:05;;;;;;;8.03;3.47;;;;;;;;;;5093326;28;20208;-74
2023/04/12 03:50:40;;;;;;;6.43;3.40;;;;;;;;;;5093382;28;20282;-74
2023/04/12 03:53:07;;;;;;;4.80;3.03;;;;;;;;;;5093413;28;20228;-75
2023/04/12 03:55:33;;;;;;;5.53;3.07;;;;;;;;;;5093473;28;20207;-75
2023/04/12 03:57:59;;;;;;;5.43;3.10;;;;;;;;;;5093415;28;20224;-74
2023/04/12 04:00:26;;;;;;;5.07;3.50;;;;;;;;;;5093398;28;20204;-75
2023/04/12 04:02:52;;;;;;;5.33;3.10;;;;;;;;;;5092773;28;20231;-75
2023/04/12 04:05:18;;;;;;;3.77;2.73;;;;;;;;;;5093079;28;20208;-75
2023/04/12 04:07:44;;;;;;;5.93;3.13;;;;;;;;;;5092919;28;20223;-75
2023/04/12 04:10:11;;;;;;;5.37;3.20;;;;;;;;;;5093222;28;20209;-75
2023/04/12 04:12:37;;;;;;;3.90;3.17;;;;;;;;;;5093262;28;20258;-75
2023/04/12 04:15:03;;;;;;;4.63;3.00;;;;;;;;;;5093150;28;20204;-75
2023/04/12 04:17:30;;;;;;;4.63;3.10;;;;;;;;;;5092630;28;20674;-75
2023/04/12 04:19:56;;;;;;;6.17;3.33;;;;;;;;;;5092841;28;20275;-75
2023/04/12 04:22:22;;;;;;;4.43;2.90;;;;;;;;;;5092927;28;20231;-75
2023/04/12 04:24:49;;;;;;;6.80;3.07;;;;;;;;;;5093028;28;20215;-75
2023/04/12 04:27:15;;;;;;;6.23;3.33;;;;;;;;;;5093087;28;20566;-75
2023/04/12 04:29:44;;;;;;;3.20;2.90;;;;;;;;;;5093110;28;20204;-75
2023/04/12 04:32:10;;;;;;;5.70;3.07;;;;;;;;;;5092627;28;20253;-75
2023/04/12 04:34:37;;;;;;;5.83;2.70;;;;;;;;;;5092920;28;20200;-75
2023/04/12 04:37:03;;;;;;;4.77;2.70;;;;;;;;;;5092824;28;20294;-75
2023/04/12 04:39:29;;;;;;;5.90;3.13;;;;;;;;;;5092720;28;20227;-75
2023/04/12 04:41:56;;;;;;;5.30;2.63;;;;;;;;;;5092598;28;20207;-75
2023/04/12 04:44:24;;;;;;;3.27;2.70;;;;;;;;;;5092301;28;20294;-74
2023/04/12 04:46:50;;;;;;;2.30;2.10;;;;;;;;;;5092644;28;20203;-75
2023/04/12 04:49:17;;;;;;;3.93;2.33;;;;;;;;;;5092190;28;20678;-75
2023/04/12 04:51:43;;;;;;;4.37;2.50;;;;;;;;;;5095359;28;20204;-75
2023/04/12 04:54:10;;;;;;;3.80;1.93;;;;;;;;;;5096231;28;20226;-75
2023/04/12 04:56:36;;;;;;;4.10;2.17;;;;;;;;;;5096113;28;20667;-75
2023/04/12 04:59:02;;;;;;;3.47;2.27;;;;;;;;;;5095488;28;20250;-74
2023/04/12 05:01:28;;;;;;;5.60;2.40;;;;;;;;;;5096223;28;20210;-74
2023/04/12 05:03:55;;;;;;;4.90;2.50;;;;;;;;;;5095974;28;20224;-74
2023/04/12 05:06:21;;;;;;;3.13;2.80;;;;;;;;;;5095380;28;20204;-75
2023/04/12 05:08:47;;;;;;;3.33;2.87;;;;;;;;;;5095898;28;20646;-74
2023/04/12 05:11:14;;;;;;;5.33;3.30;;;;;;;;;;5095908;28;20574;-74
2023/04/12 05:13:40;;;;;;;8.73;3.37;;;;;;;;;;5095603;28;20228;-74
2023/04/12 05:16:07;;;;;;;5.17;2.80;;;;;;;;;;5095693;28;20569;-75
2023/04/12 05:18:34;;;;;;;5.87;3.10;;;;;;;;;;5095469;28;20227;-74
2023/04/12 05:21:04;;;;;;;4.07;3.17;;;;;;;;;;5095827;28;20253;-73
2023/04/12 05:23:30;;;;;;;5.37;3.17;;;;;;;;;;5095173;28;20219;-75
2023/04/12 05:25:56;;;;;;;3.20;2.90;;;;;;;;;;5095264;28;20199;-75
2023/04/12 05:28:22;;;;;;;4.37;2.73;;;;;;;;;;5095425;28;20204;-74
2023/04/12 05:30:49;;;;;;;4.77;2.87;;;;;;;;;;5095356;28;20208;-75
2023/04/12 05:33:15;;;;;;;4.27;2.83;;;;;;;;;;5095418;28;20228;-75
2023/04/12 05:35:41;;;;;;;5.67;3.13;;;;;;;;;;5096362;28;20558;-74
2023/04/12 05:38:07;;;;;;;4.30;3.40;;;;;;;;;;5095321;28;20208;-74
2023/04/12 05:40:35;;;;;;;4.77;3.27;;;;;;;;;;5094957;28;20208;-75
2023/04/12 05:43:02;;;;;;;4.50;2.67;;;;;;;;;;5095204;28;20277;-75
2023/04/12 05:45:28;;;;;;;5.50;3.03;;;;;;;;;;5094871;28;20273;-74
2023/04/12 05:47:55;;;;;;;3.63;3.00;;;;;;;;;;5095047;28;20207;-74
2023/04/12 05:50:21;;;;;;;4.50;3.20;;;;;;;;;;5095242;28;20204;-74
2023/04/12 05:52:48;;;;;;;3.37;2.90;;;;;;;;;;5094720;28;20319;-75
2023/04/12 05:55:15;;;;;;;4.10;3.40;;;;;;;;;;5094621;28;20608;-74
2023/04/12 05:57:41;;;;;;;4.57;2.80;;;;;;;;;;5094749;28;20302;-74
2023/04/12 06:00:12;;;;;;;4.90;2.97;;;;;;;;;;5095042;28;20582;-74
2023/04/12 06:02:38;;;;;;;3.57;3.03;;;;;;;;;;5094698;28;20310;-74
2023/04/12 06:05:04;;;;;;;5.87;3.00;;;;;;;;;;5094926;28;20211;-74
2023/04/12 06:07:30;;;;;;;4.00;3.37;;;;;;;;;;5094934;28;20206;-74
2023/04/12 06:09:57;;;;;;;3.43;2.70;;;;;;;;;;5094687;28;20196;-74
2023/04/12 06:12:23;;;;;;;3.80;2.87;;;;;;;;;;5094476;28;20231;-74
2023/04/12 06:14:49;;;;;;;4.90;3.33;;;;;;;;;;5094413;28;20543;-74
2023/04/12 06:17:15;;;;;;;4.07;3.10;;;;;;;;;;5094667;28;20210;-74
2023/04/12 06:19:42;;;;;;;3.27;2.37;;;;;;;;;;5094497;28;20208;-71
2023/04/12 06:22:08;;;;;;;2.77;2.53;;;;;;;;;;5094266;28;20211;-74
2023/04/12 06:24:34;;;;;;;3.10;2.80;;;;;;;;;;5094138;28;20208;-73
2023/04/12 06:27:01;;;;;;;4.53;2.57;;;;;;;;;;5094657;28;20214;-73
2023/04/12 06:29:27;;;;;;;5.23;2.80;;;;;;;;;;5094379;28;20211;-74
2023/04/12 06:31:53;;;;;;;4.60;2.60;;;;;;;;;;5094264;28;20204;-71
2023/04/12 06:34:19;;;;;;;4.37;2.90;;;;;;;;;;5094395;28;20227;-73
2023/04/12 06:36:46;;;;;;;3.70;2.67;;;;;;;;;;5094286;28;20208;-72
2023/04/12 06:39:15;;;;;;;3.40;2.47;;;;;;;;;;5094185;28;20239;-72
2023/04/12 06:41:42;;;;;;;2.63;2.37;;;;;;;;;;5093948;28;20206;-73
2023/04/12 06:44:08;;;;;;;3.37;2.53;;;;;;;;;;5094569;28;20230;-73
2023/04/12 06:46:35;;;;;;;2.50;2.17;;;;;;;;;;5093759;28;20222;-72
2023/04/12 06:49:01;;;;;;;6.70;2.40;;;;;;;;;;5094008;28;20199;-74
2023/04/12 06:51:27;;;;;;;3.80;2.57;;;;;;;;;;5093904;28;20210;-73
2023/04/12 06:53:55;;;;;;;2.57;2.17;;;;;;;;;;5093514;28;20223;-74
2023/04/12 06:56:21;;;;;;;2.50;2.30;;;;;;;;;;5093331;28;20667;-74
2023/04/12 06:58:47;;;;;;;3.83;2.70;;;;;;;;;;5093676;28;20234;-74
2023/04/12 07:01:14;;;;;;;5.27;2.70;;;;;;;;;;5094572;28;20204;-74
2023/04/12 07:03:40;;;;;;;2.53;2.27;;;;;;;;;;5093929;28;20228;-74
2023/04/12 07:06:06;;;;;;;3.70;2.70;;;;;;;;;;5104688;28;20205;-74
2023/04/12 07:08:33;;;;;;;2.90;2.30;;;;;;;;;;5113936;28;20372;-73
2023/04/12 07:10:59;;;;;;;2.73;2.40;;;;;;;;;;5113727;28;20213;-73
2023/04/12 07:13:25;;;;;;;5.07;2.90;;;;;;;;;;5113254;28;20233;-74
2023/04/12 07:15:52;;;;;;;2.53;2.33;;;;;;;;;;5113558;28;20384;-73
2023/04/12 07:18:18;;;;;;;4.20;2.67;;;;;;;;;;5113120;28;20215;-73
2023/04/12 07:20:46;;;;;;;3.83;2.50;;;;;;;;;;5113942;28;20203;-72
2023/04/12 07:23:12;;;;;;;4.57;2.80;;;;;;;;;;5113431;28;20268;-74
2023/04/12 07:25:39;;;;;;;5.87;2.70;;;;;;;;;;5113937;28;20561;-74
2023/04/12 07:28:05;;;;;;;4.43;2.37;;;;;;;;;;5113885;28;20293;-73
2023/04/12 07:30:31;;;;;;;2.67;2.20;;;;;;;;;;5113844;28;20253;-74
2023/04/12 07:32:59;;;;;;;3.73;2.27;;;;;;;;;;5113736;28;20589;-75
2023/04/12 07:35:26;;;;;;;3.33;2.40;;;;;;;;;;5113729;28;20210;-74
2023/04/12 07:37:52;;;;;;;4.70;2.30;;;;;;;;;;5113761;28;20199;-74
2023/04/12 07:40:18;;;;;;;3.20;2.50;;;;;;;;;;5113706;28;20238;-74
2023/04/12 07:42:44;;;;;;;2.57;2.30;;;;;;;;;;5113675;28;20219;-73
2023/04/12 07:45:11;;;;;;;3.00;2.40;;;;;;;;;;5113688;28;20214;-75
2023/04/12 07:47:37;;;;;;;3.07;2.57;;;;;;;;;;5113415;28;20208;-74
2023/04/12 07:50:03;;;;;;;2.00;1.80;;;;;;;;;;5113417;28;20662;-74
2023/04/12 07:52:30;;;;;;;2.30;2.10;;;;;;;;;;5113557;28;20252;-74
2023/04/12 07:54:56;;;;;;;3.43;2.40;;;;;;;;;;5113301;28;20206;-74
2023/04/12 07:57:23;;;;;;;2.43;2.20;;;;;;;;;;5113639;28;20203;-74
2023/04/12 07:59:49;;;;;;;3.23;2.30;;;;;;;;;;5113119;28;20772;-73
2023/04/12 08:02:23;;;;;;;2.77;2.07;;;;;;;;;;5113131;28;20251;-74
2023/04/12 08:04:49;;;;;;;2.37;1.90;;;;;;;;;;5113381;28;20190;-74
2023/04/12 08:07:15;;;;;;;2.37;2.13;;;;;;;;;;5113941;28;20203;-74
2023/04/12 08:09:42;;;;;;;2.73;2.07;;;;;;;;;;5113288;28;20203;-74
2023/04/12 08:12:08;;;;;;;3.20;2.50;;;;;;;;;;5113448;28;20293;-74
2023/04/12 08:14:34;;;;;;;4.17;2.13;;;;;;;;;;5113851;28;20203;-74
2023/04/12 08:17:01;;;;;;;5.70;2.27;;;;;;;;;;5113034;28;20203;-75
2023/04/12 08:19:27;;;;;;;2.80;2.20;;;;;;;;;;5113329;28;20234;-74
2023/04/12 08:21:53;;;;;;;2.20;1.60;;;;;;;;;;5113404;28;20203;-74
2023/04/12 08:24:19;;;;;;;3.90;1.60;;;;;;;;;;5113780;28;20227;-74
2023/04/12 08:26:46;;;;;;;3.37;1.90;;;;;;;;;;5116090;28;20237;-74
2023/04/12 08:29:12;;;;;;;3.30;1.80;;;;;;;;;;5117099;28;20211;-73
2023/04/12 08:31:39;;;;;;;3.17;1.97;;;;;;;;;;5117941;28;20215;-75
2023/04/12 08:34:05;;;;;;;2.43;1.87;;;;;;;;;;5117088;28;20227;-76
2023/04/12 08:36:32;;;;;;;4.17;2.00;;;;;;;;;;5116945;28;20207;-75
2023/04/12 08:38:59;;;;;;;3.20;2.20;;;;;;;;;;5117058;28;20210;-75
2023/04/12 08:41:25;;;;;;;3.13;2.23;;;;;;;;;;5117114;28;20280;-75
2023/04/12 08:43:52;;;;;;;4.60;1.90;;;;;;;;;;5117083;28;20219;-75
2023/04/12 08:46:18;;;;;;;2.63;1.60;;;;;;;;;;5117250;28;20211;-77
2023/04/12 08:48:46;;;;;;;1.87;1.50;;;;;;;;;;5117925;28;20317;-76
2023/04/12 08:51:17;;;;;;;1.70;1.53;;;;;;;;;;5117048;28;20211;-77
2023/04/12 08:53:43;;;;;;;2.07;1.70;;;;;;;;;;5116851;28;20219;-76
2023/04/12 08:56:10;;;;;;;5.63;1.50;;;;;;;;;;5116900;28;20230;-76
2023/04/12 08:58:40;;;;;;;3.97;2.20;;;;;;;;;;5116486;28;20735;-76
2023/04/12 09:01:14;;;;;;;3.43;1.70;;;;;;;;;;5116686;28;20223;-75
2023/04/12 09:03:41;;;;;;;2.07;1.87;;;;;;;;;;5116668;28;20588;-75
2023/04/12 09:06:07;;;;;;;4.20;1.80;;;;;;;;;;5116452;28;20230;-76
2023/04/12 09:08:34;;;;;;;3.73;1.90;;;;;;;;;;5116635;28;20213;-76
2023/04/12 09:11:00;;;;;;;2.80;2.00;;;;;;;;;;5116473;28;20227;-76
2023/04/12 09:13:34;;;;;;;2.47;1.73;;;;;;;;;;5116253;28;20223;-75
2023/04/12 09:16:00;;;;;;;2.67;1.77;;;;;;;;;;5116108;27;20199;-75
2023/04/12 09:18:27;;;;;;;2.63;1.90;;;;;;;;;;5116071;28;20222;-74
2023/04/12 09:21:06;;;;;;;2.00;1.50;;;;;;;;;;5116118;28;20284;-75
2023/04/12 09:23:34;;;;;;;3.87;1.97;;;;;;;;;;5115963;28;20280;-75
2023/04/12 09:26:01;;;;;;;2.27;1.90;;;;;;;;;;5115954;28;20609;-75
2023/04/12 09:28:28;;;;;;;2.90;1.67;;;;;;;;;;5116224;28;20203;-76
2023/04/12 09:30:55;;;;;;;2.50;1.70;;;;;;;;;;5115791;28;20242;-75
2023/04/12 09:33:23;;;;;;;2.73;1.87;;;;;;;;;;5115685;27;20223;-74
2023/04/12 09:35:49;;;;;;;3.83;1.80;;;;;;;;;;5115691;28;20209;-75
2023/04/12 09:38:16;;;;;;;3.03;1.60;;;;;;;;;;5114574;28;20517;-75
2023/04/12 09:40:42;;;;;;;4.07;2.00;;;;;;;;;;5115715;28;20250;-74
2023/04/12 09:43:09;;;;;;;3.13;1.80;;;;;;;;;;5115790;28;20219;-75
2023/04/12 09:45:37;;;;;;;2.73;1.90;;;;;;;;;;5115598;28;20566;-74
2023/04/12 09:48:04;;;;;;;4.33;2.13;;;;;;;;;;5115957;28;20329;-73
2023/04/12 09:50:32;;;;;;;3.10;2.33;;;;;;;;;;5115394;28;20680;-74
2023/04/12 09:52:58;;;;;;;2.90;1.80;;;;;;;;;;5115326;28;20775;-74
2023/04/12 09:55:25;;;;;;;5.40;1.70;;;;;;;;;;5115689;28;20203;-72
2023/04/12 09:57:52;;;;;;;4.03;1.77;;;;;;;;;;5115276;27;20203;-73
2023/04/12 10:00:21;;;;;;;2.93;1.80;;;;;;;;;;5115480;28;20569;-75
2023/04/12 10:02:48;;;;;;;4.20;2.10;;;;;;;;;;5115605;28;20227;-74
2023/04/12 10:05:16;;;;;;;4.33;2.00;;;;;;;;;;5115512;28;20218;-74
2023/04/12 10:07:43;;;;;;;4.13;1.60;;;;;;;;;;5115445;28;20203;-74
2023/04/12 10:10:11;;;;;;;2.10;1.37;;;;;;;;;;5114929;28;20195;-74
2023/04/12 10:12:38;;;;;;;3.30;1.40;;;;;;;;;;5114682;28;20223;-73
2023/04/12 10:15:06;;;;;;;3.20;1.50;;;;;;;;;;5115024;28;20233;-73
2023/04/12 10:17:32;;;;;;;3.13;1.50;;;;;;;;;;5115486;28;20216;-73
2023/04/12 10:19:59;;;;;;;2.50;1.50;;;;;;;;;;5114806;28;20693;-73
2023/04/12 10:22:25;;;;;;;4.23;1.60;;;;;;;;;;5115181;28;20285;-74
2023/04/12 10:24:51;;;;;;;4.43;1.60;;;;;;;;;;5114998;28;20228;-74
2023/04/12 10:27:27;;;;;;;2.57;1.73;;;;;;;;;;5114600;28;20200;-73
2023/04/12 10:29:53;;;;;;;3.67;1.80;;;;;;;;;;5112819;28;20210;-74
2023/04/12 10:32:21;;;;;;;4.30;1.87;;;;;;;;;;5113033;28;20250;-73
2023/04/12 10:34:55;;;;;;;4.37;1.70;;;;;;;;;;5114672;28;20202;-73
2023/04/12 10:37:21;;;;;;;2.53;1.77;;;;;;;;;;5114763;28;20606;-74
2023/04/12 10:39:53;;;;;;;2.57;1.47;;;;;;;;;;5114737;28;20249;-73
2023/04/12 10:42:21;;;;;;;5.57;1.80;;;;;;;;;;5114339;28;20225;-75
2023/04/12 10:44:48;;;;;;;2.97;1.60;;;;;;;;;;5114539;28;20210;-74
2023/04/12 10:47:15;;;;;;;2.83;1.40;;;;;;;;;;5115063;28;20214;-75
2023/04/12 10:50:01;;;;;;;2.43;1.33;;;;;;;;;;5114492;28;20202;-74
2023/04/12 10:52:27;;;;;;;1.97;1.40;;;;;;;;;;5114412;28;20219;-75
2023/04/12 10:54:54;;;;;;;2.83;1.50;;;;;;;;;;5114263;28;20746;-75
2023/04/12 10:57:39;;;;;;;2.13;1.40;;;;;;;;;;5114505;28;20286;-75
2023/04/12 11:00:06;;;;;;;2.00;1.40;;;;;;;;;;5114206;28;20252;-75
2023/04/12 11:02:33;;;;;;;3.30;1.50;;;;;;;;;;5113928;28;20223;-75
2023/04/12 11:05:09;;;;;;;2.47;1.30;;;;;;;;;;5113853;28;20230;-75
2023/04/12 11:07:39;;;;;;;4.23;1.53;;;;;;;;;;5114172;28;20206;-74
2023/04/12 11:10:12;;;;;;;1.80;1.30;;;;;;;;;;5113922;28;20684;-76
2023/04/12 11:12:39;;;;;;;4.30;1.30;;;;;;;;;;5113788;28;20710;-73
2023/04/12 11:15:06;;;;;;;2.67;1.10;;;;;;;;;;5113726;28;20211;-73
2023/04/12 11:17:32;;;;;;;1.87;1.30;;;;;;;;;;5113771;28;20273;-73
2023/04/12 11:19:59;;;;;;;2.73;1.20;;;;;;;;;;5113895;28;20303;-74
2023/04/12 11:22:27;;;;;;;1.63;1.07;;;;;;;;;;5114124;28;20279;-73
2023/04/12 11:24:55;;;;;;;1.77;1.30;;;;;;;;;;5114136;28;20252;-73
2023/04/12 11:27:22;;;;;;;3.07;1.23;;;;;;;;;;5113832;28;20206;-73
2023/04/12 11:29:50;;;;;;;1.43;0.90;;;;;;;;;;5113994;28;20206;-73
2023/04/12 11:32:16;;;;;;;2.50;1.17;;;;;;;;;;5113556;28;20713;-72
2023/04/12 11:34:44;;;;;;;0.97;0.97;;;;;;;;;;5113617;28;20622;-72
2023/04/12 11:37:10;;;;;;;1.03;0.93;;;;;;;;;;5113556;28;20294;-74
2023/04/12 11:39:39;;;;;;;1.20;1.10;;;;;;;;;;5113741;28;20207;-74
2023/04/12 11:42:07;;;;;;;2.10;1.00;;;;;;;;;;5113319;28;20217;-74
2023/04/12 11:44:34;;;;;;;1.50;0.93;;;;;;;;;;5114174;28;20210;-75
2023/04/12 11:47:01;;;;;;;2.87;1.03;;;;;;;;;;5113673;28;20310;-74
2023/04/12 11:49:27;;;;;;;1.67;0.83;;;;;;;;;;5113713;28;20211;-75
2023/04/12 11:52:03;;;;;;;1.37;0.90;;;;;;;;;;5113514;28;20256;-75
2023/04/12 11:54:29;;;;;;;1.53;0.90;;;;;;;;;;5113755;28;20207;-74
2023/04/12 11:56:57;;;;;;;2.70;1.20;;;;;;;;;;5113513;28;20206;-75
2023/04/12 11:59:23;;;;;;;1.53;1.20;;;;;;;;;;5113406;28;20209;-75
2023/04/12 12:01:52;;;;;;;1.13;0.97;;;;;;;;;;5116766;28;20234;-75
2023/04/12 12:04:19;;;;;;;0.80;0.80;;;;;;;;;;5117751;28;20229;-75
2023/04/12 12:06:45;;;;;;;1.00;0.90;;;;;;;;;;5117585;28;20210;-73
2023/04/12 12:09:11;;;;;;;1.20;0.90;;;;;;;;;;5118091;28;20654;-74
2023/04/12 12:11:38;;;;;;;1.27;0.70;;;;;;;;;;5117268;28;20205;-74
2023/04/12 12:14:06;;;;;;;1.83;0.90;;;;;;;;;;5117393;28;20223;-74
2023/04/12 12:16:32;;;;;;;1.03;1.00;;;;;;;;;;5117637;28;20210;-74
2023/04/12 12:18:58;;;;;;;2.47;0.90;;;;;;;;;;5116783;28;20421;-74
2023/04/12 12:21:25;;;;;;;1.73;0.80;;;;;;;;;;5117549;28;20227;-74
2023/04/12 12:23:52;;;;;;;1.53;0.80;;;;;;;;;;5117200;28;20725;-74
2023/04/12 12:26:19;;;;;;;1.20;0.67;;;;;;;;;;5117364;28;20199;-75
2023/04/12 12:28:49;;;;;;;1.80;0.93;;;;;;;;;;5117186;28;20203;-74
2023/04/12 12:31:18;;;;;;;1.00;0.87;;;;;;;;;;5117248;28;20199;-75
2023/04/12 12:33:45;;;;;;;1.13;0.63;;;;;;;;;;5117144;28;20272;-74
2023/04/12 12:36:12;;;;;;;2.33;0.90;;;;;;;;;;5117139;28;20242;-74
2023/04/12 12:38:39;;;;;;;1.10;0.77;;;;;;;;;;5116746;28;20267;-75
2023/04/12 12:41:22;;;;;;;1.47;0.70;;;;;;;;;;5117021;28;20226;-75
2023/04/12 12:43:49;;;;;;;1.90;0.90;;;;;;;;;;5116802;28;20314;-76
2023/04/12 12:46:16;;;;;;;1.07;0.90;;;;;;;;;;5116593;28;20206;-77
2023/04/12 12:48:42;;;;;;;2.00;1.10;;;;;;;;;;5116564;28;20319;-75
2023/04/12 12:51:09;;;;;;;1.20;0.93;;;;;;;;;;5116598;28;20207;-75
2023/04/12 12:53:35;;;;;;;0.80;0.80;;;;;;;;;;5116743;28;20223;-75
2023/04/12 12:56:02;;;;;;;1.43;0.63;;;;;;;;;;5116696;28;20313;-74
2023/04/12 12:58:29;;;;;;;0.80;0.80;;;;;;;;;;5116464;28;20199;-76
2023/04/12 13:00:55;;;;;;;1.03;0.80;;;;;;;;;;5116614;28;20258;-74
2023/04/12 13:03:21;;;;;;;1.13;0.90;;;;;;;;;;5116336;28;20219;-75
2023/04/12 13:05:48;;;;;;;1.83;0.90;;;;;;;;;;5116517;28;20207;-74
2023/04/12 13:08:14;;;;;;;1.73;1.00;;;;;;;;;;5116133;28;20214;-75
2023/04/12 13:10:40;;;;;;;1.30;1.00;;;;;;;;;;5116355;28;20256;-75
2023/04/12 13:13:07;;;;;;;1.40;0.67;;;;;;;;;;5115963;28;20611;-75
2023/04/12 13:15:33;;;;;;;1.20;0.90;;;;;;;;;;5116540;28;20211;-74
2023/04/12 13:18:00;;;;;;;3.07;0.90;;;;;;;;;;5115790;28;20211;-75
2023/04/12 13:20:27;;;;;;;1.00;0.87;;;;;;;;;;5115973;28;20230;-75
2023/04/12 13:22:53;;;;;;;1.50;0.90;;;;;;;;;;5115890;28;20223;-75
2023/04/12 13:25:20;;;;;;;1.33;1.00;;;;;;;;;;5116038;28;20203;-73
2023/04/12 13:27:50;;;;;;;1.33;0.90;;;;;;;;;;5116353;28;20214;-74
2023/04/12 13:30:17;;;;;;;1.50;0.90;;;;;;;;;;5116110;28;20209;-74
2023/04/12 13:32:44;;;;;;;0.80;0.70;;;;;;;;;;5115718;28;20223;-74
2023/04/12 13:35:10;;;;;;;1.60;1.07;;;;;;;;;;5115563;28;20666;-75
2023/04/12 13:37:37;;;;;;;1.00;0.80;;;;;;;;;;5116414;28;20238;-75
2023/04/12 13:40:03;;;;;;;1.70;0.80;;;;;;;;;;5115925;28;20230;-74
2023/04/12 13:42:30;;;;;;;1.67;0.87;;;;;;;;;;5115942;28;20223;-74
2023/04/12 13:44:56;;;;;;;1.07;0.63;;;;;;;;;;5116253;28;20530;-74
2023/04/12 13:47:22;;;;;;;1.63;0.80;;;;;;;;;;5115400;28;20209;-74
2023/04/12 13:49:48;;;;;;;1.60;1.00;;;;;;;;;;5115528;28;20210;-75
2023/04/12 13:52:15;;;;;;;1.13;0.80;;;;;;;;;;5114997;28;20210;-74
2023/04/12 13:54:42;;;;;;;2.63;0.73;;;;;;;;;;5115103;28;20207;-75
2023/04/12 13:57:08;;;;;;;1.87;0.90;;;;;;;;;;5115268;28;20200;-75
2023/04/12 13:59:35;;;;;;;1.63;0.73;;;;;;;;;;5115359;28;20210;-75
2023/04/12 14:02:01;;;;;;;1.73;0.90;;;;;;;;;;5115156;27;20234;-76
2023/04/12 14:04:28;;;;;;;1.70;0.80;;;;;;;;;;5115011;28;20665;-75
2023/04/12 14:06:54;;;;;;;2.20;0.63;;;;;;;;;;5114937;28;20205;-74
2023/04/12 14:09:28;;;;;;;0.77;0.77;;;;;;;;;;5115300;28;20207;-74
2023/04/12 14:11:55;;;;;;;2.10;0.80;;;;;;;;;;5115113;28;20213;-75
2023/04/12 14:14:22;;;;;;;0.97;0.80;;;;;;;;;;5114755;28;20646;-75
2023/04/12 14:16:52;;;;;;;1.40;0.90;;;;;;;;;;5114753;28;20244;-74
2023/04/12 14:19:19;;;;;;;1.30;0.90;;;;;;;;;;5114754;28;20207;-75
2023/04/12 14:21:47;;;;;;;0.80;0.80;;;;;;;;;;5115148;28;20227;-75
2023/04/12 14:24:14;;;;;;;2.40;0.83;;;;;;;;;;5114251;27;20223;-75
2023/04/12 14:26:40;;;;;;;0.70;0.70;;;;;;;;;;5115022;28;20291;-74
2023/04/12 14:29:06;;;;;;;0.60;0.60;;;;;;;;;;5114739;28;20207;-74
2023/04/12 14:31:34;;;;;;;1.70;0.73;;;;;;;;;;5114765;28;20203;-74
2023/04/12 14:34:01;;;;;;;1.30;0.70;;;;;;;;;;5114537;28;20296;-74
2023/04/12 14:36:27;;;;;;;0.63;0.63;;;;;;;;;;5114512;28;20203;-77
2023/04/12 14:38:53;;;;;;;0.97;0.80;;;;;;;;;;5114608;28;20214;-75
2023/04/12 14:41:20;;;;;;;0.70;0.70;;;;;;;;;;5114405;28;20227;-75
2023/04/12 14:43:46;;;;;;;1.70;1.00;;;;;;;;;;5114253;28;20226;-74